VLG6YG LEMG-EHAM
Flight info
| Callsign | VLG6YG |
|---|---|
| Flight time | 2h 29m |
| Altitude | 36000 |
| Route | BLN DCT MORAL DCT BEXID DCT VTB DCT RBO DCT OSTIX DCT GASMO DCT DGO DCT CEGAM DCT BAGAS DCT SSN DCT LUSEM DCT LULUT DCT ADABI DCT BOKNO UN858 VANAD UN874 ARSAF DCT EGOZE DCT CMB DCT VEKIN DCT ADUTO N873 FERDI Y18 DENUT |
| Aircraft | A320/M-SDE3FGHIRWY/LB1 |
Departure
| Time | 2026-04-30 06:24 |
|---|---|
| Airport | Málaga-Costa del Sol Airport (LEMG) |
Arrival
| Time | 2026-04-30 08:54 |
|---|---|
| Airport | Amsterdam Airport Schiphol (EHAM) |
| Time | Latitude | Longitude | Altitude | Speed | Heading |
|---|---|---|---|---|---|
| 2026-04-30 05:54 | 36.67584 | -4.49307 | 42 ft | 0 kts | 116° |
| 2026-04-30 06:04 | 36.67585 | -4.49307 | 42 ft | 0 kts | 116° |
| 2026-04-30 06:14 | 36.67586 | -4.49309 | 42 ft | 2 kts | 115° |
| 2026-04-30 06:15 | 36.67594 | -4.49339 | 39 ft | 4 kts | 91° |
| 2026-04-30 06:15 | 36.67588 | -4.49370 | 40 ft | 4 kts | 56° |
| 2026-04-30 06:15 | 36.67571 | -4.49395 | 38 ft | 4 kts | 44° |
| 2026-04-30 06:15 | 36.67557 | -4.49416 | 39 ft | 4 kts | 101° |
| 2026-04-30 06:16 | 36.67564 | -4.49438 | 39 ft | 4 kts | 94° |
| 2026-04-30 06:16 | 36.67557 | -4.49461 | 41 ft | 2 kts | 41° |
| 2026-04-30 06:16 | 36.67558 | -4.49452 | 40 ft | 4 kts | 85° |
| 2026-04-30 06:16 | 36.67554 | -4.49422 | 39 ft | 4 kts | 84° |
| 2026-04-30 06:17 | 36.67569 | -4.49399 | 39 ft | 2 kts | 41° |
| 2026-04-30 06:17 | 36.67570 | -4.49398 | 38 ft | 1 kts | 41° |
| 2026-04-30 06:19 | 36.67571 | -4.49397 | 38 ft | 1 kts | 41° |
| 2026-04-30 06:19 | 36.67575 | -4.49398 | 38 ft | 0 kts | 5° |
| 2026-04-30 06:19 | 36.67577 | -4.49402 | 39 ft | 1 kts | 322° |
| 2026-04-30 06:20 | 36.67575 | -4.49408 | 40 ft | 1 kts | 263° |
| 2026-04-30 06:20 | 36.67566 | -4.49415 | 37 ft | 4 kts | 222° |
| 2026-04-30 06:20 | 36.67534 | -4.49452 | 40 ft | 9 kts | 222° |
| 2026-04-30 06:20 | 36.67463 | -4.49478 | 39 ft | 12 kts | 197° |
| 2026-04-30 06:21 | 36.67385 | -4.49466 | 43 ft | 13 kts | 131° |
| 2026-04-30 06:21 | 36.67319 | -4.49374 | 42 ft | 15 kts | 132° |
| 2026-04-30 06:21 | 36.67242 | -4.49267 | 42 ft | 18 kts | 131° |
| 2026-04-30 06:21 | 36.67153 | -4.49142 | 41 ft | 21 kts | 131° |
| 2026-04-30 06:22 | 36.67054 | -4.49002 | 42 ft | 23 kts | 131° |
| 2026-04-30 06:22 | 36.66944 | -4.48847 | 40 ft | 26 kts | 132° |
| 2026-04-30 06:22 | 36.66818 | -4.48670 | 36 ft | 28 kts | 130° |
| 2026-04-30 06:22 | 36.66696 | -4.48504 | 34 ft | 19 kts | 140° |
| 2026-04-30 06:23 | 36.66613 | -4.48518 | 37 ft | 12 kts | 221° |
| 2026-04-30 06:23 | 36.66560 | -4.48589 | 39 ft | 10 kts | 252° |
| 2026-04-30 06:23 | 36.66589 | -4.48648 | 40 ft | 9 kts | 313° |
| 2026-04-30 06:23 | 36.66693 | -4.48794 | 42 ft | 51 kts | 311° |
| 2026-04-30 06:24 | 36.67073 | -4.49329 | 46 ft | 110 kts | 311° |
| 2026-04-30 06:24 | 36.67687 | -4.50191 | 60 ft | 154 kts | 311° |
| 2026-04-30 06:24 | 36.68391 | -4.51197 | 648 ft | 151 kts | 310° |
| 2026-04-30 06:24 | 36.69065 | -4.52217 | 1258 ft | 154 kts | 309° |
| 2026-04-30 06:25 | 36.69747 | -4.53262 | 1839 ft | 159 kts | 308° |
| 2026-04-30 06:25 | 36.70482 | -4.54360 | 2278 ft | 170 kts | 308° |
| 2026-04-30 06:25 | 36.71267 | -4.55535 | 2731 ft | 182 kts | 307° |
| 2026-04-30 06:25 | 36.72094 | -4.56779 | 3232 ft | 190 kts | 307° |
| 2026-04-30 06:26 | 36.72988 | -4.58079 | 3687 ft | 206 kts | 313° |
| 2026-04-30 06:26 | 36.74250 | -4.59068 | 4188 ft | 223 kts | 341° |
| 2026-04-30 06:26 | 36.75761 | -4.59553 | 4962 ft | 228 kts | 342° |
| 2026-04-30 06:26 | 36.77312 | -4.60068 | 5669 ft | 232 kts | 342° |
| 2026-04-30 06:27 | 36.78871 | -4.60619 | 6461 ft | 234 kts | 341° |
| 2026-04-30 06:27 | 36.80477 | -4.61016 | 7204 ft | 239 kts | 360° |
| 2026-04-30 06:27 | 36.82118 | -4.60547 | 7887 ft | 249 kts | 24° |
| 2026-04-30 06:27 | 36.83607 | -4.59353 | 8480 ft | 261 kts | 40° |
| 2026-04-30 06:28 | 36.84992 | -4.57824 | 9103 ft | 272 kts | 42° |
| 2026-04-30 06:28 | 36.86407 | -4.56214 | 9824 ft | 280 kts | 42° |
| 2026-04-30 06:28 | 36.87850 | -4.54572 | 10436 ft | 288 kts | 41° |
| 2026-04-30 06:28 | 36.89358 | -4.52889 | 11142 ft | 293 kts | 41° |
| 2026-04-30 06:29 | 36.90907 | -4.51174 | 11882 ft | 296 kts | 40° |
| 2026-04-30 06:29 | 36.92439 | -4.49488 | 12626 ft | 299 kts | 40° |
| 2026-04-30 06:29 | 36.94010 | -4.47765 | 13363 ft | 302 kts | 40° |
| 2026-04-30 06:29 | 36.95602 | -4.46018 | 14057 ft | 306 kts | 40° |
| 2026-04-30 06:30 | 36.97210 | -4.44251 | 14702 ft | 310 kts | 40° |
| 2026-04-30 06:30 | 36.98926 | -4.42602 | 15240 ft | 317 kts | 31° |
| 2026-04-30 06:30 | 37.00849 | -4.41063 | 15369 ft | 339 kts | 31° |
| 2026-04-30 06:30 | 37.02909 | -4.39436 | 15497 ft | 361 kts | 31° |
| 2026-04-30 06:31 | 37.05088 | -4.37724 | 15643 ft | 379 kts | 31° |
| 2026-04-30 06:31 | 37.07350 | -4.35942 | 16059 ft | 387 kts | 31° |
| 2026-04-30 06:31 | 37.09641 | -4.34126 | 16623 ft | 392 kts | 31° |
| 2026-04-30 06:31 | 37.11979 | -4.32355 | 17194 ft | 394 kts | 24° |
| 2026-04-30 06:32 | 37.14548 | -4.31171 | 17763 ft | 395 kts | 15° |
| 2026-04-30 06:32 | 37.17174 | -4.30107 | 18376 ft | 398 kts | 15° |
| 2026-04-30 06:32 | 37.19814 | -4.29045 | 18894 ft | 401 kts | 15° |
| 2026-04-30 06:32 | 37.22480 | -4.27972 | 19425 ft | 404 kts | 15° |
| 2026-04-30 06:33 | 37.25170 | -4.26884 | 19937 ft | 408 kts | 15° |
| 2026-04-30 06:33 | 37.27876 | -4.25786 | 20452 ft | 411 kts | 15° |
| 2026-04-30 06:33 | 37.30610 | -4.24675 | 20941 ft | 415 kts | 15° |
| 2026-04-30 06:33 | 37.33367 | -4.23555 | 21418 ft | 418 kts | 15° |
| 2026-04-30 06:34 | 37.36141 | -4.22429 | 21886 ft | 421 kts | 15° |
| 2026-04-30 06:34 | 37.38943 | -4.21291 | 22337 ft | 425 kts | 15° |
| 2026-04-30 06:34 | 37.41768 | -4.20141 | 22813 ft | 428 kts | 15° |
| 2026-04-30 06:34 | 37.44608 | -4.18983 | 23268 ft | 431 kts | 15° |
| 2026-04-30 06:35 | 37.47469 | -4.17817 | 23713 ft | 434 kts | 15° |
| 2026-04-30 06:35 | 37.50356 | -4.16642 | 24095 ft | 437 kts | 15° |
| 2026-04-30 06:35 | 37.53262 | -4.15458 | 24485 ft | 440 kts | 15° |
| 2026-04-30 06:35 | 37.56179 | -4.14268 | 24869 ft | 442 kts | 15° |
| 2026-04-30 06:36 | 37.59117 | -4.13067 | 25254 ft | 445 kts | 15° |
| 2026-04-30 06:36 | 37.62072 | -4.11859 | 25638 ft | 448 kts | 15° |
| 2026-04-30 06:36 | 37.65042 | -4.10640 | 26020 ft | 450 kts | 15° |
| 2026-04-30 06:36 | 37.68027 | -4.09413 | 26403 ft | 452 kts | 15° |
| 2026-04-30 06:37 | 37.71027 | -4.08178 | 26771 ft | 455 kts | 15° |
| 2026-04-30 06:37 | 37.74044 | -4.06939 | 27135 ft | 457 kts | 15° |
| 2026-04-30 06:37 | 37.76047 | -4.06117 | 27380 ft | 459 kts | 15° |
| 2026-04-30 06:37 | 37.80124 | -4.04437 | 27865 ft | 462 kts | 15° |
| 2026-04-30 06:38 | 37.83190 | -4.03173 | 28239 ft | 465 kts | 15° |
| 2026-04-30 06:38 | 37.86270 | -4.01901 | 28607 ft | 467 kts | 15° |
| 2026-04-30 06:38 | 37.89366 | -4.00622 | 28981 ft | 470 kts | 15° |
| 2026-04-30 06:38 | 37.92483 | -3.99334 | 29343 ft | 472 kts | 15° |
| 2026-04-30 06:39 | 37.95609 | -3.98041 | 29694 ft | 475 kts | 15° |
| 2026-04-30 06:39 | 37.98757 | -3.96741 | 30033 ft | 477 kts | 15° |
| 2026-04-30 06:39 | 38.01880 | -3.95454 | 30369 ft | 478 kts | 15° |
| 2026-04-30 06:39 | 38.05084 | -3.94131 | 30796 ft | 477 kts | 15° |
| 2026-04-30 06:40 | 38.08238 | -3.92823 | 31231 ft | 476 kts | 15° |
| 2026-04-30 06:40 | 38.11385 | -3.91513 | 31668 ft | 475 kts | 15° |
| 2026-04-30 06:40 | 38.14518 | -3.90205 | 32109 ft | 474 kts | 15° |
| 2026-04-30 06:40 | 38.16596 | -3.89339 | 32392 ft | 474 kts | 15° |
| 2026-04-30 06:41 | 38.19724 | -3.88036 | 32822 ft | 473 kts | 15° |
| 2026-04-30 06:41 | 38.22852 | -3.86730 | 33259 ft | 472 kts | 15° |
| 2026-04-30 06:41 | 38.25972 | -3.85431 | 33682 ft | 471 kts | 15° |
| 2026-04-30 06:41 | 38.29087 | -3.84134 | 34121 ft | 470 kts | 15° |
| 2026-04-30 06:42 | 38.32189 | -3.82841 | 34498 ft | 470 kts | 15° |
| 2026-04-30 06:42 | 38.35291 | -3.81543 | 34859 ft | 469 kts | 14° |
| 2026-04-30 06:42 | 38.38391 | -3.80245 | 35203 ft | 468 kts | 14° |
| 2026-04-30 06:42 | 38.41483 | -3.78947 | 35537 ft | 468 kts | 14° |
| 2026-04-30 06:43 | 38.44575 | -3.77653 | 35867 ft | 467 kts | 14° |
| 2026-04-30 06:43 | 38.47659 | -3.76361 | 36052 ft | 468 kts | 14° |
| 2026-04-30 06:43 | 38.50772 | -3.75053 | 36079 ft | 473 kts | 14° |
| 2026-04-30 06:44 | 38.57039 | -3.72417 | 36078 ft | 475 kts | 14° |
| 2026-04-30 06:44 | 38.63268 | -3.69786 | 36075 ft | 475 kts | 14° |
| 2026-04-30 06:45 | 38.69547 | -3.67139 | 36076 ft | 475 kts | 14° |
| 2026-04-30 06:45 | 38.75817 | -3.64487 | 36079 ft | 475 kts | 14° |
| 2026-04-30 06:46 | 38.82098 | -3.61833 | 36079 ft | 475 kts | 14° |
| 2026-04-30 06:46 | 38.88372 | -3.59177 | 36095 ft | 475 kts | 14° |
| 2026-04-30 06:47 | 38.94648 | -3.56506 | 36087 ft | 475 kts | 14° |
| 2026-04-30 06:47 | 39.00972 | -3.54204 | 36083 ft | 468 kts | 4° |
| 2026-04-30 06:48 | 39.07425 | -3.53473 | 36086 ft | 465 kts | 359° |
| 2026-04-30 06:48 | 39.13878 | -3.52843 | 36085 ft | 465 kts | 359° |
| 2026-04-30 06:49 | 39.20335 | -3.52202 | 36084 ft | 465 kts | 359° |
| 2026-04-30 06:49 | 39.26788 | -3.51550 | 36084 ft | 465 kts | 359° |
| 2026-04-30 06:50 | 39.33249 | -3.50905 | 36104 ft | 466 kts | 359° |
| 2026-04-30 06:50 | 39.39705 | -3.50259 | 36095 ft | 465 kts | 359° |
| 2026-04-30 06:51 | 39.46161 | -3.49608 | 36088 ft | 465 kts | 359° |
| 2026-04-30 06:51 | 39.52612 | -3.48954 | 36084 ft | 465 kts | 359° |
| 2026-04-30 06:52 | 39.59050 | -3.48307 | 36099 ft | 464 kts | 358° |
| 2026-04-30 06:52 | 39.65489 | -3.47662 | 36090 ft | 464 kts | 358° |
| 2026-04-30 06:53 | 39.71921 | -3.47020 | 36081 ft | 463 kts | 358° |
| 2026-04-30 06:53 | 39.78344 | -3.46368 | 36093 ft | 464 kts | 359° |
| 2026-04-30 06:54 | 39.84770 | -3.45298 | 36086 ft | 467 kts | 3° |
| 2026-04-30 06:54 | 39.91173 | -3.43878 | 36083 ft | 467 kts | 4° |
| 2026-04-30 06:55 | 39.97581 | -3.42479 | 36070 ft | 466 kts | 2° |
| 2026-04-30 06:55 | 40.03979 | -3.41189 | 36094 ft | 465 kts | 2° |
| 2026-04-30 06:56 | 40.10376 | -3.39922 | 36085 ft | 465 kts | 2° |
| 2026-04-30 06:56 | 40.16766 | -3.38651 | 36083 ft | 465 kts | 2° |
| 2026-04-30 06:57 | 40.23118 | -3.37371 | 36094 ft | 465 kts | 2° |
| 2026-04-30 06:57 | 40.29508 | -3.36065 | 36094 ft | 465 kts | 2° |
| 2026-04-30 06:58 | 40.35896 | -3.34767 | 36095 ft | 464 kts | 2° |
| 2026-04-30 06:58 | 40.42282 | -3.33470 | 36096 ft | 464 kts | 2° |
| 2026-04-30 06:59 | 40.48664 | -3.32175 | 36118 ft | 464 kts | 1° |
| 2026-04-30 06:59 | 40.55074 | -3.30876 | 36105 ft | 463 kts | 1° |
| 2026-04-30 07:00 | 40.61449 | -3.29580 | 36089 ft | 463 kts | 1° |
| 2026-04-30 07:00 | 40.67767 | -3.28292 | 36082 ft | 463 kts | 1° |
| 2026-04-30 07:01 | 40.74133 | -3.26981 | 36076 ft | 463 kts | 1° |
| 2026-04-30 07:01 | 40.80502 | -3.25665 | 36069 ft | 463 kts | 1° |
| 2026-04-30 07:02 | 40.86865 | -3.24192 | 36095 ft | 471 kts | 11° |
| 2026-04-30 07:02 | 40.93007 | -3.20936 | 36086 ft | 477 kts | 16° |
| 2026-04-30 07:03 | 40.99111 | -3.17505 | 36079 ft | 477 kts | 17° |
| 2026-04-30 07:03 | 41.05217 | -3.14052 | 36076 ft | 477 kts | 17° |
| 2026-04-30 07:04 | 41.11323 | -3.10606 | 36096 ft | 477 kts | 17° |
| 2026-04-30 07:04 | 41.17428 | -3.07153 | 36083 ft | 477 kts | 17° |
| 2026-04-30 07:05 | 41.26573 | -3.01981 | 36062 ft | 476 kts | 17° |
| 2026-04-30 07:05 | 41.32682 | -2.98525 | 36095 ft | 477 kts | 17° |
| 2026-04-30 07:06 | 41.38785 | -2.95065 | 36071 ft | 477 kts | 17° |
| 2026-04-30 07:06 | 41.44887 | -2.91585 | 36071 ft | 477 kts | 17° |
| 2026-04-30 07:07 | 41.50945 | -2.88125 | 36075 ft | 477 kts | 17° |
| 2026-04-30 07:07 | 41.57043 | -2.84640 | 36084 ft | 477 kts | 18° |
| 2026-04-30 07:08 | 41.63138 | -2.81154 | 36070 ft | 477 kts | 18° |
| 2026-04-30 07:08 | 41.69229 | -2.77655 | 36074 ft | 477 kts | 18° |
| 2026-04-30 07:09 | 41.75322 | -2.74134 | 36082 ft | 477 kts | 18° |
| 2026-04-30 07:09 | 41.81409 | -2.70623 | 36070 ft | 476 kts | 18° |
| 2026-04-30 07:10 | 41.87497 | -2.67112 | 36067 ft | 476 kts | 18° |
| 2026-04-30 07:10 | 41.93583 | -2.63590 | 36056 ft | 476 kts | 18° |
| 2026-04-30 07:11 | 41.99662 | -2.60064 | 36073 ft | 476 kts | 19° |
| 2026-04-30 07:11 | 42.05742 | -2.56532 | 36062 ft | 476 kts | 19° |
| 2026-04-30 07:12 | 42.11818 | -2.52990 | 36064 ft | 476 kts | 19° |
| 2026-04-30 07:12 | 42.17882 | -2.49447 | 36074 ft | 475 kts | 19° |
| 2026-04-30 07:13 | 42.23959 | -2.45898 | 36077 ft | 476 kts | 19° |
| 2026-04-30 07:13 | 42.30023 | -2.42347 | 36081 ft | 475 kts | 19° |
| 2026-04-30 07:14 | 42.36087 | -2.38770 | 36089 ft | 476 kts | 19° |
| 2026-04-30 07:14 | 42.42154 | -2.35200 | 36116 ft | 475 kts | 20° |
| 2026-04-30 07:15 | 42.48212 | -2.31632 | 36110 ft | 474 kts | 20° |
| 2026-04-30 07:15 | 42.54254 | -2.28053 | 36101 ft | 474 kts | 20° |
| 2026-04-30 07:16 | 42.60290 | -2.24472 | 36102 ft | 474 kts | 20° |
| 2026-04-30 07:16 | 42.66334 | -2.20879 | 36090 ft | 474 kts | 20° |
| 2026-04-30 07:17 | 42.72368 | -2.17286 | 36080 ft | 474 kts | 20° |
| 2026-04-30 07:18 | 42.81388 | -2.11917 | 36073 ft | 474 kts | 20° |
| 2026-04-30 07:18 | 42.87417 | -2.08301 | 36065 ft | 473 kts | 20° |
| 2026-04-30 07:19 | 42.93452 | -2.04689 | 36067 ft | 473 kts | 20° |
| 2026-04-30 07:19 | 42.99482 | -2.01077 | 36067 ft | 473 kts | 20° |
| 2026-04-30 07:20 | 43.05510 | -1.97453 | 36077 ft | 473 kts | 21° |
| 2026-04-30 07:20 | 43.11516 | -1.93818 | 36064 ft | 472 kts | 22° |
| 2026-04-30 07:21 | 43.17514 | -1.90184 | 36040 ft | 471 kts | 22° |
| 2026-04-30 07:21 | 43.23520 | -1.86544 | 36036 ft | 472 kts | 22° |
| 2026-04-30 07:22 | 43.32523 | -1.81074 | 36039 ft | 472 kts | 22° |
| 2026-04-30 07:22 | 43.38434 | -1.77178 | 36039 ft | 472 kts | 31° |
| 2026-04-30 07:23 | 43.43942 | -1.72232 | 36049 ft | 473 kts | 33° |
| 2026-04-30 07:23 | 43.49439 | -1.67274 | 36050 ft | 473 kts | 33° |
| 2026-04-30 07:24 | 43.54938 | -1.62307 | 36049 ft | 472 kts | 33° |
| 2026-04-30 07:24 | 43.60425 | -1.57322 | 36056 ft | 472 kts | 33° |
| 2026-04-30 07:25 | 43.65902 | -1.52335 | 36045 ft | 472 kts | 33° |
| 2026-04-30 07:25 | 43.71386 | -1.47335 | 36040 ft | 472 kts | 33° |
| 2026-04-30 07:26 | 43.76876 | -1.42323 | 36044 ft | 473 kts | 34° |
| 2026-04-30 07:26 | 43.82359 | -1.37296 | 36049 ft | 473 kts | 34° |
| 2026-04-30 07:27 | 43.87850 | -1.32262 | 36053 ft | 473 kts | 34° |
| 2026-04-30 07:27 | 43.93340 | -1.27222 | 36054 ft | 473 kts | 34° |
| 2026-04-30 07:28 | 43.97889 | -1.23023 | 36055 ft | 473 kts | 34° |
| 2026-04-30 07:28 | 44.03363 | -1.17975 | 36067 ft | 472 kts | 34° |
| 2026-04-30 07:29 | 44.08832 | -1.12920 | 36044 ft | 472 kts | 34° |
| 2026-04-30 07:29 | 44.14290 | -1.07844 | 36049 ft | 472 kts | 34° |
| 2026-04-30 07:30 | 44.22470 | -1.00233 | 36049 ft | 472 kts | 35° |
| 2026-04-30 07:31 | 44.27925 | -0.95151 | 36051 ft | 471 kts | 35° |
| 2026-04-30 07:31 | 44.33370 | -0.90059 | 36062 ft | 471 kts | 35° |
| 2026-04-30 07:32 | 44.38823 | -0.84979 | 36061 ft | 471 kts | 32° |
| 2026-04-30 07:32 | 44.44731 | -0.81003 | 36064 ft | 472 kts | 24° |
| 2026-04-30 07:33 | 44.50749 | -0.77336 | 36060 ft | 471 kts | 24° |
| 2026-04-30 07:33 | 44.56753 | -0.73674 | 36065 ft | 471 kts | 24° |
| 2026-04-30 07:34 | 44.62762 | -0.69996 | 36072 ft | 471 kts | 24° |
| 2026-04-30 07:34 | 44.68751 | -0.66325 | 36081 ft | 469 kts | 24° |
| 2026-04-30 07:35 | 44.74711 | -0.62657 | 36076 ft | 467 kts | 24° |
| 2026-04-30 07:35 | 44.80665 | -0.58990 | 36075 ft | 467 kts | 24° |
| 2026-04-30 07:36 | 44.86621 | -0.55323 | 36079 ft | 467 kts | 24° |
| 2026-04-30 07:36 | 44.92564 | -0.51644 | 36074 ft | 466 kts | 24° |
| 2026-04-30 07:37 | 44.98506 | -0.47950 | 36073 ft | 466 kts | 24° |
| 2026-04-30 07:37 | 45.04443 | -0.44264 | 36074 ft | 465 kts | 25° |
| 2026-04-30 07:38 | 45.10351 | -0.40571 | 36078 ft | 464 kts | 25° |
| 2026-04-30 07:38 | 45.16240 | -0.36878 | 36073 ft | 462 kts | 25° |
| 2026-04-30 07:39 | 45.22122 | -0.33190 | 36073 ft | 461 kts | 25° |
| 2026-04-30 07:39 | 45.27981 | -0.29513 | 36071 ft | 460 kts | 25° |
| 2026-04-30 07:40 | 45.33818 | -0.25847 | 36072 ft | 458 kts | 25° |
| 2026-04-30 07:40 | 45.39647 | -0.22177 | 36062 ft | 458 kts | 26° |
| 2026-04-30 07:41 | 45.45458 | -0.18505 | 36069 ft | 457 kts | 26° |
| 2026-04-30 07:41 | 45.51267 | -0.14811 | 36067 ft | 457 kts | 26° |
| 2026-04-30 07:42 | 45.57068 | -0.11122 | 36071 ft | 456 kts | 26° |
| 2026-04-30 07:42 | 45.62868 | -0.07433 | 36067 ft | 456 kts | 26° |
| 2026-04-30 07:43 | 45.68659 | -0.03744 | 36068 ft | 456 kts | 26° |
| 2026-04-30 07:43 | 45.74448 | -0.00039 | 36053 ft | 455 kts | 26° |
| 2026-04-30 07:44 | 45.80228 | 0.03663 | 36068 ft | 455 kts | 26° |
| 2026-04-30 07:44 | 45.85972 | 0.07345 | 36076 ft | 455 kts | 26° |
| 2026-04-30 07:45 | 45.91784 | 0.11080 | 36071 ft | 455 kts | 26° |
| 2026-04-30 07:45 | 45.97554 | 0.14806 | 36063 ft | 455 kts | 26° |
| 2026-04-30 07:46 | 46.03286 | 0.18520 | 36060 ft | 455 kts | 26° |
| 2026-04-30 07:46 | 46.09069 | 0.22271 | 36070 ft | 456 kts | 26° |
| 2026-04-30 07:47 | 46.14853 | 0.26029 | 36075 ft | 456 kts | 26° |
| 2026-04-30 07:47 | 46.20644 | 0.29795 | 36072 ft | 456 kts | 26° |
| 2026-04-30 07:48 | 46.26433 | 0.33569 | 36078 ft | 457 kts | 26° |
| 2026-04-30 07:48 | 46.32227 | 0.37362 | 36077 ft | 457 kts | 26° |
| 2026-04-30 07:49 | 46.38015 | 0.41159 | 36078 ft | 456 kts | 26° |
| 2026-04-30 07:49 | 46.43789 | 0.44952 | 36081 ft | 455 kts | 26° |
| 2026-04-30 07:50 | 46.49552 | 0.48742 | 36085 ft | 454 kts | 26° |
| 2026-04-30 07:50 | 46.55311 | 0.52485 | 36087 ft | 454 kts | 22° |
| 2026-04-30 07:51 | 46.61419 | 0.54820 | 36081 ft | 454 kts | 14° |
| 2026-04-30 07:51 | 46.67588 | 0.56848 | 36087 ft | 455 kts | 14° |
| 2026-04-30 07:52 | 46.73755 | 0.58892 | 36083 ft | 453 kts | 14° |
| 2026-04-30 07:52 | 46.79902 | 0.60928 | 36085 ft | 453 kts | 14° |
| 2026-04-30 07:53 | 46.86058 | 0.62955 | 36085 ft | 453 kts | 14° |
| 2026-04-30 07:53 | 46.92207 | 0.64992 | 36087 ft | 453 kts | 14° |
| 2026-04-30 07:54 | 46.98352 | 0.67043 | 36096 ft | 453 kts | 14° |
| 2026-04-30 07:54 | 47.04510 | 0.69038 | 36097 ft | 453 kts | 10° |
| 2026-04-30 07:55 | 47.10807 | 0.69800 | 36091 ft | 454 kts | 5° |
| 2026-04-30 07:55 | 47.17110 | 0.70454 | 36094 ft | 455 kts | 5° |
| 2026-04-30 07:56 | 47.23422 | 0.71112 | 36094 ft | 455 kts | 5° |
| 2026-04-30 07:56 | 47.29737 | 0.71780 | 36095 ft | 455 kts | 6° |
| 2026-04-30 07:57 | 47.36042 | 0.72450 | 36096 ft | 455 kts | 5° |
| 2026-04-30 07:57 | 47.42354 | 0.73111 | 36097 ft | 454 kts | 5° |
| 2026-04-30 07:58 | 47.48648 | 0.73875 | 36094 ft | 453 kts | 11° |
| 2026-04-30 07:58 | 47.54678 | 0.76363 | 36093 ft | 450 kts | 20° |
| 2026-04-30 07:59 | 47.60625 | 0.79294 | 36092 ft | 450 kts | 20° |
| 2026-04-30 07:59 | 47.66564 | 0.82227 | 36097 ft | 450 kts | 20° |
| 2026-04-30 08:00 | 47.75474 | 0.86638 | 36107 ft | 449 kts | 20° |
| 2026-04-30 08:00 | 47.81400 | 0.89569 | 36116 ft | 448 kts | 20° |
| 2026-04-30 08:01 | 47.87310 | 0.92506 | 36118 ft | 447 kts | 20° |
| 2026-04-30 08:01 | 47.93185 | 0.95476 | 36119 ft | 446 kts | 20° |
| 2026-04-30 08:02 | 48.01947 | 0.99943 | 36117 ft | 445 kts | 20° |
| 2026-04-30 08:03 | 48.13673 | 1.05897 | 36129 ft | 445 kts | 21° |
| 2026-04-30 08:04 | 48.19523 | 1.08881 | 36126 ft | 444 kts | 21° |
| 2026-04-30 08:04 | 48.25374 | 1.11878 | 36136 ft | 444 kts | 20° |
| 2026-04-30 08:05 | 48.31224 | 1.14859 | 36144 ft | 444 kts | 20° |
| 2026-04-30 08:05 | 48.37084 | 1.17842 | 36145 ft | 444 kts | 20° |
| 2026-04-30 08:06 | 48.42935 | 1.20836 | 36152 ft | 444 kts | 20° |
| 2026-04-30 08:06 | 48.48788 | 1.23847 | 36155 ft | 444 kts | 20° |
| 2026-04-30 08:07 | 48.54634 | 1.26881 | 36161 ft | 444 kts | 22° |
| 2026-04-30 08:07 | 48.57354 | 1.29026 | 36174 ft | 440 kts | 34° |
| 2026-04-30 08:07 | 48.59903 | 1.31598 | 36165 ft | 441 kts | 37° |
| 2026-04-30 08:08 | 48.64996 | 1.36759 | 36160 ft | 441 kts | 37° |
| 2026-04-30 08:08 | 48.70082 | 1.41959 | 36173 ft | 441 kts | 37° |
| 2026-04-30 08:09 | 48.75169 | 1.47187 | 36179 ft | 441 kts | 36° |
| 2026-04-30 08:09 | 48.80248 | 1.52408 | 36185 ft | 441 kts | 36° |
| 2026-04-30 08:10 | 48.85331 | 1.57635 | 36193 ft | 441 kts | 36° |
| 2026-04-30 08:10 | 48.90406 | 1.62868 | 36193 ft | 441 kts | 36° |
| 2026-04-30 08:11 | 48.95487 | 1.68117 | 36194 ft | 441 kts | 36° |
| 2026-04-30 08:11 | 49.00555 | 1.73371 | 36192 ft | 441 kts | 36° |
| 2026-04-30 08:12 | 49.04764 | 1.77748 | 36184 ft | 441 kts | 37° |
| 2026-04-30 08:12 | 49.09821 | 1.83009 | 36193 ft | 440 kts | 37° |
| 2026-04-30 08:13 | 49.14876 | 1.88271 | 36206 ft | 440 kts | 37° |
| 2026-04-30 08:13 | 49.19925 | 1.93554 | 36204 ft | 440 kts | 37° |
| 2026-04-30 08:14 | 49.24970 | 1.98848 | 36224 ft | 439 kts | 37° |
| 2026-04-30 08:14 | 49.30004 | 2.04146 | 36226 ft | 439 kts | 37° |
| 2026-04-30 08:15 | 49.35037 | 2.09449 | 36225 ft | 439 kts | 37° |
| 2026-04-30 08:15 | 49.40056 | 2.14756 | 36235 ft | 438 kts | 37° |
| 2026-04-30 08:16 | 49.45074 | 2.20089 | 36231 ft | 438 kts | 37° |
| 2026-04-30 08:16 | 49.50085 | 2.25416 | 36224 ft | 438 kts | 37° |
| 2026-04-30 08:17 | 49.55089 | 2.30732 | 36236 ft | 436 kts | 37° |
| 2026-04-30 08:17 | 49.60069 | 2.36045 | 36243 ft | 435 kts | 37° |
| 2026-04-30 08:18 | 49.65029 | 2.41351 | 36250 ft | 434 kts | 37° |
| 2026-04-30 08:18 | 49.69988 | 2.46675 | 36249 ft | 434 kts | 37° |
| 2026-04-30 08:19 | 49.74935 | 2.52008 | 36250 ft | 433 kts | 37° |
| 2026-04-30 08:19 | 49.79873 | 2.57334 | 36252 ft | 433 kts | 37° |
| 2026-04-30 08:20 | 49.84812 | 2.62669 | 36250 ft | 433 kts | 37° |
| 2026-04-30 08:20 | 49.89741 | 2.68018 | 36260 ft | 433 kts | 37° |
| 2026-04-30 08:21 | 49.94673 | 2.73380 | 36257 ft | 433 kts | 37° |
| 2026-04-30 08:21 | 49.99606 | 2.78756 | 36266 ft | 433 kts | 37° |
| 2026-04-30 08:22 | 50.04529 | 2.84140 | 36257 ft | 433 kts | 37° |
| 2026-04-30 08:22 | 50.09422 | 2.89499 | 36272 ft | 433 kts | 37° |
| 2026-04-30 08:23 | 50.14384 | 2.94936 | 36272 ft | 433 kts | 38° |
| 2026-04-30 08:23 | 50.19597 | 2.99609 | 36258 ft | 437 kts | 24° |
| 2026-04-30 08:24 | 50.25247 | 3.03139 | 36283 ft | 438 kts | 24° |
| 2026-04-30 08:24 | 50.30873 | 3.06631 | 36299 ft | 438 kts | 24° |
| 2026-04-30 08:25 | 50.36540 | 3.10168 | 36303 ft | 438 kts | 24° |
| 2026-04-30 08:25 | 50.42201 | 3.13720 | 36307 ft | 439 kts | 25° |
| 2026-04-30 08:26 | 50.47871 | 3.17277 | 36315 ft | 439 kts | 25° |
| 2026-04-30 08:26 | 50.53540 | 3.20855 | 36318 ft | 439 kts | 25° |
| 2026-04-30 08:27 | 50.59209 | 3.24435 | 36320 ft | 439 kts | 25° |
| 2026-04-30 08:27 | 50.64879 | 3.28013 | 36327 ft | 439 kts | 25° |
| 2026-04-30 08:28 | 50.70546 | 3.31613 | 36134 ft | 439 kts | 25° |
| 2026-04-30 08:28 | 50.73375 | 3.33416 | 35745 ft | 437 kts | 25° |
| 2026-04-30 08:28 | 50.76193 | 3.35213 | 35131 ft | 437 kts | 25° |
| 2026-04-30 08:28 | 50.79015 | 3.37014 | 34531 ft | 437 kts | 25° |
| 2026-04-30 08:29 | 50.81842 | 3.38819 | 33871 ft | 438 kts | 25° |
| 2026-04-30 08:29 | 50.84661 | 3.40619 | 33187 ft | 437 kts | 25° |
| 2026-04-30 08:29 | 50.87473 | 3.42414 | 32526 ft | 436 kts | 25° |
| 2026-04-30 08:29 | 50.90286 | 3.44211 | 31873 ft | 434 kts | 25° |
| 2026-04-30 08:30 | 50.93084 | 3.46003 | 31243 ft | 433 kts | 25° |
| 2026-04-30 08:30 | 50.95867 | 3.47794 | 30625 ft | 431 kts | 25° |
| 2026-04-30 08:30 | 50.98639 | 3.49582 | 29952 ft | 429 kts | 25° |
| 2026-04-30 08:30 | 51.01402 | 3.51365 | 29158 ft | 429 kts | 25° |
| 2026-04-30 08:31 | 51.04170 | 3.53152 | 28336 ft | 429 kts | 25° |
| 2026-04-30 08:31 | 51.06936 | 3.54937 | 27543 ft | 429 kts | 25° |
| 2026-04-30 08:31 | 51.09697 | 3.56721 | 26768 ft | 428 kts | 25° |
| 2026-04-30 08:31 | 51.12441 | 3.58493 | 26230 ft | 418 kts | 25° |
| 2026-04-30 08:32 | 51.15097 | 3.60205 | 25630 ft | 406 kts | 25° |
| 2026-04-30 08:32 | 51.17685 | 3.61881 | 25341 ft | 397 kts | 25° |
| 2026-04-30 08:32 | 51.20221 | 3.63533 | 24912 ft | 392 kts | 25° |
| 2026-04-30 08:32 | 51.22733 | 3.65173 | 24493 ft | 388 kts | 25° |
| 2026-04-30 08:33 | 51.25220 | 3.66813 | 24007 ft | 386 kts | 25° |
| 2026-04-30 08:33 | 51.27694 | 3.68501 | 23403 ft | 387 kts | 26° |
| 2026-04-30 08:33 | 51.30152 | 3.70211 | 22877 ft | 384 kts | 26° |
| 2026-04-30 08:33 | 51.32585 | 3.71920 | 22356 ft | 381 kts | 26° |
| 2026-04-30 08:34 | 51.35000 | 3.73620 | 21833 ft | 378 kts | 26° |
| 2026-04-30 08:34 | 51.37403 | 3.75308 | 21323 ft | 376 kts | 26° |
| 2026-04-30 08:34 | 51.39790 | 3.76978 | 20805 ft | 373 kts | 26° |
| 2026-04-30 08:34 | 51.42167 | 3.78637 | 20143 ft | 374 kts | 26° |
| 2026-04-30 08:35 | 51.44594 | 3.80336 | 19084 ft | 387 kts | 26° |
| 2026-04-30 08:35 | 51.47103 | 3.82094 | 17912 ft | 400 kts | 26° |
| 2026-04-30 08:35 | 51.49690 | 3.83904 | 17091 ft | 415 kts | 26° |
| 2026-04-30 08:35 | 51.52357 | 3.85769 | 16364 ft | 419 kts | 26° |
| 2026-04-30 08:36 | 51.55031 | 3.87631 | 15649 ft | 417 kts | 26° |
| 2026-04-30 08:36 | 51.57676 | 3.89470 | 14922 ft | 412 kts | 26° |
| 2026-04-30 08:36 | 51.60290 | 3.91297 | 14200 ft | 408 kts | 26° |
| 2026-04-30 08:36 | 51.62849 | 3.93094 | 13457 ft | 404 kts | 27° |
| 2026-04-30 08:37 | 51.65410 | 3.94899 | 12771 ft | 400 kts | 27° |
| 2026-04-30 08:37 | 51.67946 | 3.96692 | 12076 ft | 396 kts | 27° |
| 2026-04-30 08:37 | 51.70452 | 3.98465 | 11560 ft | 387 kts | 27° |
| 2026-04-30 08:37 | 51.72849 | 4.00154 | 11425 ft | 366 kts | 27° |
| 2026-04-30 08:38 | 51.75127 | 4.01757 | 11313 ft | 347 kts | 28° |
| 2026-04-30 08:38 | 51.77283 | 4.03277 | 11193 ft | 331 kts | 28° |
| 2026-04-30 08:38 | 51.79354 | 4.04745 | 11071 ft | 318 kts | 28° |
| 2026-04-30 08:38 | 51.81338 | 4.06155 | 10961 ft | 306 kts | 28° |
| 2026-04-30 08:39 | 51.83253 | 4.07515 | 10832 ft | 295 kts | 29° |
| 2026-04-30 08:39 | 51.85110 | 4.08836 | 10620 ft | 289 kts | 29° |
| 2026-04-30 08:39 | 51.86932 | 4.10137 | 10382 ft | 285 kts | 29° |
| 2026-04-30 08:39 | 51.88738 | 4.11427 | 10235 ft | 284 kts | 29° |
| 2026-04-30 08:40 | 51.90545 | 4.12717 | 10096 ft | 283 kts | 29° |
| 2026-04-30 08:40 | 51.92331 | 4.14042 | 9965 ft | 282 kts | 31° |
| 2026-04-30 08:40 | 51.94083 | 4.15468 | 9834 ft | 281 kts | 33° |
| 2026-04-30 08:40 | 51.95813 | 4.16935 | 9693 ft | 280 kts | 33° |
| 2026-04-30 08:41 | 51.97532 | 4.18410 | 9450 ft | 279 kts | 33° |
| 2026-04-30 08:41 | 51.99244 | 4.19879 | 9213 ft | 278 kts | 33° |
| 2026-04-30 08:41 | 52.00951 | 4.21338 | 8964 ft | 277 kts | 33° |
| 2026-04-30 08:41 | 52.02656 | 4.22788 | 8726 ft | 276 kts | 33° |
| 2026-04-30 08:42 | 52.04361 | 4.24228 | 8490 ft | 276 kts | 33° |
| 2026-04-30 08:42 | 52.06062 | 4.25665 | 8242 ft | 275 kts | 33° |
| 2026-04-30 08:42 | 52.07756 | 4.27094 | 8002 ft | 274 kts | 33° |
| 2026-04-30 08:42 | 52.09432 | 4.28509 | 7755 ft | 274 kts | 33° |
| 2026-04-30 08:43 | 52.11123 | 4.29938 | 7514 ft | 273 kts | 33° |
| 2026-04-30 08:43 | 52.12809 | 4.31361 | 7263 ft | 272 kts | 33° |
| 2026-04-30 08:43 | 52.14484 | 4.32780 | 7029 ft | 271 kts | 33° |
| 2026-04-30 08:43 | 52.16158 | 4.34201 | 6796 ft | 271 kts | 33° |
| 2026-04-30 08:44 | 52.17829 | 4.35616 | 6531 ft | 270 kts | 32° |
| 2026-04-30 08:44 | 52.19496 | 4.37018 | 6275 ft | 269 kts | 33° |
| 2026-04-30 08:44 | 52.21158 | 4.38411 | 6023 ft | 268 kts | 33° |
| 2026-04-30 08:44 | 52.22808 | 4.39811 | 5763 ft | 267 kts | 33° |
| 2026-04-30 08:45 | 52.24449 | 4.41209 | 5510 ft | 266 kts | 33° |
| 2026-04-30 08:45 | 52.26085 | 4.42609 | 5266 ft | 265 kts | 33° |
| 2026-04-30 08:45 | 52.27709 | 4.43998 | 5011 ft | 263 kts | 34° |
| 2026-04-30 08:45 | 52.29331 | 4.45385 | 4743 ft | 262 kts | 34° |
| 2026-04-30 08:46 | 52.30939 | 4.46760 | 4507 ft | 260 kts | 34° |
| 2026-04-30 08:46 | 52.32535 | 4.48124 | 4254 ft | 257 kts | 34° |
| 2026-04-30 08:46 | 52.34107 | 4.49469 | 4013 ft | 253 kts | 34° |
| 2026-04-30 08:46 | 52.35634 | 4.50772 | 3954 ft | 241 kts | 35° |
| 2026-04-30 08:47 | 52.37086 | 4.52008 | 3904 ft | 229 kts | 35° |
| 2026-04-30 08:47 | 52.38464 | 4.53181 | 3853 ft | 217 kts | 36° |
| 2026-04-30 08:47 | 52.39756 | 4.54284 | 3807 ft | 208 kts | 36° |
| 2026-04-30 08:47 | 52.41006 | 4.55355 | 3746 ft | 198 kts | 37° |
| 2026-04-30 08:48 | 52.42181 | 4.56362 | 3728 ft | 182 kts | 37° |
| 2026-04-30 08:48 | 52.43259 | 4.57282 | 3664 ft | 167 kts | 38° |
| 2026-04-30 08:48 | 52.44276 | 4.58160 | 3550 ft | 166 kts | 38° |
| 2026-04-30 08:48 | 52.45286 | 4.59105 | 3422 ft | 167 kts | 41° |
| 2026-04-30 08:49 | 52.46132 | 4.60302 | 3248 ft | 154 kts | 65° |
| 2026-04-30 08:49 | 52.46442 | 4.61892 | 3066 ft | 144 kts | 93° |
| 2026-04-30 08:49 | 52.46414 | 4.63538 | 2918 ft | 145 kts | 95° |
| 2026-04-30 08:49 | 52.46386 | 4.65192 | 2765 ft | 145 kts | 95° |
| 2026-04-30 08:50 | 52.46358 | 4.66842 | 2611 ft | 144 kts | 96° |
| 2026-04-30 08:50 | 52.46331 | 4.68483 | 2539 ft | 144 kts | 95° |
| 2026-04-30 08:50 | 52.46311 | 4.70131 | 2501 ft | 144 kts | 95° |
| 2026-04-30 08:50 | 52.45922 | 4.71500 | 2324 ft | 137 kts | 140° |
| 2026-04-30 08:51 | 52.45031 | 4.72049 | 2239 ft | 141 kts | 164° |
| 2026-04-30 08:51 | 52.44045 | 4.71966 | 2046 ft | 139 kts | 175° |
| 2026-04-30 08:51 | 52.43098 | 4.71816 | 1768 ft | 135 kts | 175° |
| 2026-04-30 08:51 | 52.42156 | 4.71677 | 1443 ft | 135 kts | 173° |
| 2026-04-30 08:52 | 52.41230 | 4.71580 | 1278 ft | 132 kts | 172° |
| 2026-04-30 08:52 | 52.40318 | 4.71541 | 1206 ft | 132 kts | 171° |
| 2026-04-30 08:52 | 52.39392 | 4.71478 | 894 ft | 133 kts | 173° |
| 2026-04-30 08:52 | 52.38460 | 4.71389 | 579 ft | 133 kts | 176° |
| 2026-04-30 08:53 | 52.37537 | 4.71311 | 390 ft | 135 kts | 178° |
| 2026-04-30 08:53 | 52.36596 | 4.71221 | 178 ft | 134 kts | 175° |
| 2026-04-30 08:53 | 52.35674 | 4.71151 | 16 ft | 131 kts | 178° |
| 2026-04-30 08:53 | 52.34874 | 4.71079 | 0 ft | 93 kts | 184° |
| 2026-04-30 08:54 | 52.34402 | 4.71035 | -4 ft | 45 kts | 183° |
| 2026-04-30 08:54 | 52.34127 | 4.71011 | -4 ft | 37 kts | 182° |
| 2026-04-30 08:54 | 52.33889 | 4.71013 | -1 ft | 30 kts | 169° |
| 2026-04-30 08:54 | 52.33716 | 4.71125 | -1 ft | 25 kts | 153° |
| 2026-04-30 08:55 | 52.33569 | 4.71236 | -1 ft | 17 kts | 170° |
| 2026-04-30 08:55 | 52.33450 | 4.71229 | -1 ft | 18 kts | 183° |
| 2026-04-30 08:55 | 52.33312 | 4.71215 | -1 ft | 22 kts | 183° |
| 2026-04-30 08:55 | 52.33185 | 4.71327 | -1 ft | 23 kts | 131° |
| 2026-04-30 08:56 | 52.33138 | 4.71519 | -1 ft | 18 kts | 69° |
| 2026-04-30 08:56 | 52.33117 | 4.71713 | -1 ft | 20 kts | 130° |
| 2026-04-30 08:56 | 52.33019 | 4.71890 | -1 ft | 22 kts | 131° |
| 2026-04-30 08:56 | 52.32912 | 4.72091 | -1 ft | 25 kts | 130° |
| 2026-04-30 08:57 | 52.32795 | 4.72307 | -1 ft | 26 kts | 131° |
| 2026-04-30 08:57 | 52.32668 | 4.72538 | -1 ft | 26 kts | 135° |
| 2026-04-30 08:57 | 52.32530 | 4.72738 | -1 ft | 27 kts | 139° |
| 2026-04-30 08:57 | 52.32384 | 4.72944 | -1 ft | 28 kts | 139° |
| 2026-04-30 08:58 | 52.32232 | 4.73155 | -1 ft | 29 kts | 139° |
| 2026-04-30 08:58 | 52.32103 | 4.73334 | -1 ft | 22 kts | 139° |
| 2026-04-30 08:58 | 52.32054 | 4.73519 | -1 ft | 18 kts | 93° |
| 2026-04-30 08:58 | 52.32048 | 4.73661 | -1 ft | 20 kts | 94° |
| 2026-04-30 08:59 | 52.32042 | 4.73892 | -1 ft | 21 kts | 93° |
| 2026-04-30 08:59 | 52.32028 | 4.74128 | -1 ft | 19 kts | 110° |
| 2026-04-30 08:59 | 52.31914 | 4.74187 | -1 ft | 19 kts | 184° |
| 2026-04-30 08:59 | 52.31775 | 4.74170 | -1 ft | 21 kts | 182° |
| 2026-04-30 09:00 | 52.31626 | 4.74158 | -1 ft | 22 kts | 181° |
| 2026-04-30 09:00 | 52.31465 | 4.74140 | -1 ft | 24 kts | 185° |
| 2026-04-30 09:00 | 52.31246 | 4.74127 | -1 ft | 25 kts | 182° |
| 2026-04-30 09:00 | 52.31127 | 4.74117 | -1 ft | 26 kts | 183° |
| 2026-04-30 09:01 | 52.30941 | 4.74099 | -1 ft | 28 kts | 184° |
| 2026-04-30 09:01 | 52.30745 | 4.74081 | -1 ft | 29 kts | 184° |
| 2026-04-30 09:01 | 52.30541 | 4.74060 | -1 ft | 30 kts | 182° |
| 2026-04-30 09:01 | 52.30403 | 4.74152 | -1 ft | 19 kts | 129° |
| 2026-04-30 09:02 | 52.30218 | 4.74498 | 10 ft | 21 kts | 131° |
| 2026-04-30 09:02 | 52.30117 | 4.74684 | 7 ft | 24 kts | 132° |
| 2026-04-30 09:02 | 52.29992 | 4.74917 | -1 ft | 28 kts | 131° |
| 2026-04-30 09:03 | 52.29864 | 4.75157 | -1 ft | 24 kts | 130° |
| 2026-04-30 09:03 | 52.29860 | 4.75387 | -1 ft | 23 kts | 58° |
| 2026-04-30 09:03 | 52.29942 | 4.75614 | -1 ft | 22 kts | 57° |
| 2026-04-30 09:03 | 52.30029 | 4.75832 | -1 ft | 24 kts | 58° |
| 2026-04-30 09:04 | 52.30117 | 4.76059 | -1 ft | 24 kts | 57° |
| 2026-04-30 09:04 | 52.30206 | 4.76292 | -1 ft | 25 kts | 58° |
| 2026-04-30 09:04 | 52.30296 | 4.76526 | -1 ft | 25 kts | 57° |
| 2026-04-30 09:04 | 52.30385 | 4.76757 | -1 ft | 17 kts | 56° |
| 2026-04-30 09:05 | 52.30449 | 4.76923 | -1 ft | 18 kts | 59° |
| 2026-04-30 09:05 | 52.30429 | 4.77051 | -1 ft | 14 kts | 167° |
| 2026-04-30 09:05 | 52.30359 | 4.76952 | -1 ft | 15 kts | 239° |
| 2026-04-30 09:05 | 52.30309 | 4.76806 | -1 ft | 15 kts | 249° |
| 2026-04-30 09:06 | 52.30344 | 4.76666 | -1 ft | 12 kts | 268° |
| 2026-04-30 09:06 | 52.30343 | 4.76534 | -1 ft | 13 kts | 312° |
| 2026-04-30 09:06 | 52.30417 | 4.76455 | -1 ft | 10 kts | 327° |
| 2026-04-30 09:06 | 52.30429 | 4.76412 | -1 ft | 3 kts | 248° |
| 2026-04-30 09:07 | 52.30416 | 4.76376 | -1 ft | 3 kts | 238° |
| 2026-04-30 09:07 | 52.30410 | 4.76361 | -1 ft | 0 kts | 238° |
| 2026-04-30 09:09 | 52.30411 | 4.76361 | -1 ft | 0 kts | 238° |